首页
METAR-TAF:

METAR-TAF

机场 :

蒙特利尔皮埃尔·埃利奥特·特鲁多国际机场

蒙特利尔特鲁多, 魁北克, 加拿大

纬度: 45-28N, 经度: 073-45W, 海拔: 31米

当前天气观测

该预报发布于36分钟前的12:00 UTC
风速7节,风向
温度 18°C
湿度 77%
气压 1013 hPa
能見度: 24.1公里
少量云层高于4000英尺
少量云层高于11000英尺
少量云层高于15000英尺
阴天层高于24000英尺

METAR: CYUL 181200Z 01007KT 15SM FEW040 FEW110 FEW150 OVC240 18/14 A2991 RMK SC1AC1AC1CI7 SC TR AC TR SLP129 DENSITY ALT 600FT

时间: 08:36 (12:36 UTC)

预报

该预报发布于55分钟前的11:41 UTC
预报有效从18日的 12点(UTC)到 19日的 12点(UTC)
风速10节,风向,有时为20节阵风
能見度: 10公里
散云层高于2000英尺
多云层高于24000英尺
短暂存在
从 18日的 12点(UTC)到 18日的 14点(UTC)
多云层高于2000英尺
从 18日的 1700点(UTC)
风速10节,风向北转东北,有时为20节阵风
能見度: 10公里
少量云层高于3000英尺
成为
从 18日的 23点(UTC)到 19日的 01点(UTC)
风速8节,风向北转东北
从 19日的 0300点(UTC)
风速8节,风向北转东北
能見度: 10公里
散云层高于6000英尺

TAF: CYUL 181141Z 1812/1912 01010G20KT P6SM SCT020 BKN240 TEMPO 1812/1814 BKN020 FM181700 03010G20KT P6SM FEW030 BECMG 1823/1901 03008KT FM190300 02008KT P6SM SCT060 RMK NXT FCST BY 181500Z

超过4000个机场的气象观测和天气预报(METAR&TAF报告)。

可查询的气象台以黄色和红色小点在地图上表示。

将鼠标移到小点上方,可查看气象台名称。

然后点击查看天气观测和预报。

如需切换地图:点击带黑十字的绿色按钮放大地图;点击带横线的绿色按钮缩小地图;或者点击绿色箭头查看邻近地区的地图。


METAR-TAF: